PTWTP SBJV-SBSP
Flight info
| Callsign | PTWTP |
|---|---|
| Flight time | 0h 36m |
| Altitude | 37000 |
| Route | DULIA UM400 KOXAG UM540 ANISE |
| Aircraft | LJ35/M-SGHRWXY/SB1 |
Departure
| Time | 2026-05-07 20:03 |
|---|---|
| Airport | Lauro Carneiro de Loyola Airport (SBJV) |
Arrival
| Time | 2026-05-07 20:39 |
|---|---|
| Airport | Congonhas–Deputado Freitas Nobre Airport (SBSP) |
| Time | Latitude | Longitude | Altitude | Speed | Heading |
|---|---|---|---|---|---|
| 2026-05-07 19:47 | -26.22401 | -48.80108 | 12 ft | 0 kts | 218° |
| 2026-05-07 19:54 | -26.22401 | -48.80109 | 17 ft | 0 kts | 218° |
| 2026-05-07 19:54 | -26.22392 | -48.80101 | 17 ft | 2 kts | 218° |
| 2026-05-07 19:55 | -26.22381 | -48.80091 | 17 ft | 2 kts | 218° |
| 2026-05-07 19:55 | -26.22369 | -48.80081 | 17 ft | 2 kts | 218° |
| 2026-05-07 19:55 | -26.22357 | -48.80071 | 17 ft | 2 kts | 218° |
| 2026-05-07 19:55 | -26.22346 | -48.80061 | 17 ft | 2 kts | 218° |
| 2026-05-07 19:56 | -26.22339 | -48.80055 | 17 ft | 0 kts | 218° |
| 2026-05-07 19:56 | -26.22340 | -48.80056 | 17 ft | 0 kts | 223° |
| 2026-05-07 19:57 | -26.22341 | -48.80066 | 17 ft | 3 kts | 295° |
| 2026-05-07 19:57 | -26.22333 | -48.80085 | 17 ft | 3 kts | 232° |
| 2026-05-07 19:57 | -26.22348 | -48.80073 | 17 ft | 4 kts | 113° |
| 2026-05-07 19:58 | -26.22337 | -48.80033 | 17 ft | 7 kts | 54° |
| 2026-05-07 19:58 | -26.22306 | -48.79981 | 19 ft | 9 kts | 83° |
| 2026-05-07 19:58 | -26.22337 | -48.79908 | 19 ft | 13 kts | 126° |
| 2026-05-07 19:58 | -26.22394 | -48.79813 | 18 ft | 17 kts | 127° |
| 2026-05-07 19:59 | -26.22466 | -48.79708 | 18 ft | 20 kts | 126° |
| 2026-05-07 19:59 | -26.22560 | -48.79577 | 17 ft | 20 kts | 131° |
| 2026-05-07 19:59 | -26.22643 | -48.79458 | 18 ft | 10 kts | 132° |
| 2026-05-07 19:59 | -26.22645 | -48.79455 | 18 ft | 0 kts | 133° |
| 2026-05-07 20:00 | -26.22646 | -48.79454 | 18 ft | 2 kts | 133° |
| 2026-05-07 20:00 | -26.22680 | -48.79411 | 19 ft | 11 kts | 130° |
| 2026-05-07 20:00 | -26.22738 | -48.79335 | 19 ft | 14 kts | 130° |
| 2026-05-07 20:01 | -26.22776 | -48.79285 | 19 ft | 0 kts | 129° |
| 2026-05-07 20:01 | -26.22779 | -48.79282 | 19 ft | 4 kts | 129° |
| 2026-05-07 20:01 | -26.22810 | -48.79239 | 19 ft | 9 kts | 129° |
| 2026-05-07 20:01 | -26.22863 | -48.79188 | 20 ft | 9 kts | 141° |
| 2026-05-07 20:02 | -26.22860 | -48.79165 | 20 ft | 6 kts | 338° |
| 2026-05-07 20:02 | -26.22819 | -48.79218 | 19 ft | 18 kts | 306° |
| 2026-05-07 20:02 | -26.22620 | -48.79494 | 17 ft | 92 kts | 309° |
| 2026-05-07 20:02 | -26.22008 | -48.80334 | 175 ft | 178 kts | 310° |
| 2026-05-07 20:03 | -26.21083 | -48.81580 | 698 ft | 241 kts | 311° |
| 2026-05-07 20:03 | -26.19903 | -48.83215 | 1235 ft | 297 kts | 309° |
| 2026-05-07 20:03 | -26.18549 | -48.85131 | 1941 ft | 313 kts | 311° |
| 2026-05-07 20:03 | -26.17034 | -48.86484 | 2565 ft | 278 kts | 334° |
| 2026-05-07 20:04 | -26.15292 | -48.87101 | 3068 ft | 252 kts | 352° |
| 2026-05-07 20:04 | -26.13532 | -48.87038 | 3954 ft | 254 kts | 9° |
| 2026-05-07 20:04 | -26.11863 | -48.86394 | 5651 ft | 257 kts | 25° |
| 2026-05-07 20:04 | -26.10446 | -48.85141 | 7299 ft | 264 kts | 43° |
| 2026-05-07 20:05 | -26.09333 | -48.83466 | 8810 ft | 272 kts | 51° |
| 2026-05-07 20:05 | -26.08241 | -48.81729 | 10240 ft | 276 kts | 51° |
| 2026-05-07 20:05 | -26.07139 | -48.79980 | 11506 ft | 283 kts | 51° |
| 2026-05-07 20:05 | -26.05996 | -48.78169 | 12799 ft | 289 kts | 51° |
| 2026-05-07 20:06 | -26.04829 | -48.76324 | 14034 ft | 295 kts | 51° |
| 2026-05-07 20:06 | -26.03635 | -48.74436 | 15179 ft | 301 kts | 51° |
| 2026-05-07 20:06 | -26.02418 | -48.72511 | 16339 ft | 307 kts | 51° |
| 2026-05-07 20:06 | -26.01428 | -48.70363 | 17493 ft | 320 kts | 66° |
| 2026-05-07 20:07 | -26.00924 | -48.67912 | 18573 ft | 331 kts | 76° |
| 2026-05-07 20:07 | -26.00554 | -48.65338 | 19472 ft | 343 kts | 77° |
| 2026-05-07 20:07 | -26.00167 | -48.62711 | 20377 ft | 353 kts | 77° |
| 2026-05-07 20:07 | -25.99756 | -48.59983 | 21275 ft | 363 kts | 77° |
| 2026-05-07 20:08 | -25.99333 | -48.57169 | 22160 ft | 373 kts | 78° |
| 2026-05-07 20:08 | -25.98901 | -48.54280 | 23033 ft | 383 kts | 78° |
| 2026-05-07 20:08 | -25.98457 | -48.51316 | 23829 ft | 392 kts | 79° |
| 2026-05-07 20:08 | -25.98005 | -48.48303 | 24633 ft | 397 kts | 79° |
| 2026-05-07 20:09 | -25.97545 | -48.45256 | 25439 ft | 403 kts | 79° |
| 2026-05-07 20:09 | -25.97078 | -48.42160 | 26234 ft | 408 kts | 79° |
| 2026-05-07 20:09 | -25.96508 | -48.39094 | 26989 ft | 412 kts | 71° |
| 2026-05-07 20:10 | -25.94205 | -48.33207 | 28510 ft | 420 kts | 62° |
| 2026-05-07 20:10 | -25.92963 | -48.30245 | 29244 ft | 425 kts | 63° |
| 2026-05-07 20:10 | -25.91714 | -48.27246 | 29946 ft | 430 kts | 63° |
| 2026-05-07 20:10 | -25.90445 | -48.24210 | 30509 ft | 435 kts | 63° |
| 2026-05-07 20:11 | -25.89158 | -48.21146 | 31059 ft | 440 kts | 63° |
| 2026-05-07 20:11 | -25.87816 | -48.18069 | 31575 ft | 444 kts | 58° |
| 2026-05-07 20:11 | -25.86065 | -48.15250 | 32079 ft | 445 kts | 47° |
| 2026-05-07 20:11 | -25.84040 | -48.12679 | 32549 ft | 449 kts | 45° |
| 2026-05-07 20:12 | -25.81955 | -48.10057 | 33024 ft | 454 kts | 46° |
| 2026-05-07 20:12 | -25.79864 | -48.07408 | 33489 ft | 458 kts | 46° |
| 2026-05-07 20:12 | -25.77754 | -48.04736 | 33915 ft | 462 kts | 46° |
| 2026-05-07 20:12 | -25.75620 | -48.02045 | 34275 ft | 466 kts | 46° |
| 2026-05-07 20:13 | -25.73496 | -47.99370 | 34632 ft | 470 kts | 46° |
| 2026-05-07 20:13 | -25.71327 | -47.96635 | 34963 ft | 474 kts | 46° |
| 2026-05-07 20:13 | -25.69144 | -47.93881 | 35287 ft | 477 kts | 46° |
| 2026-05-07 20:13 | -25.66939 | -47.91105 | 35605 ft | 481 kts | 46° |
| 2026-05-07 20:14 | -25.64716 | -47.88310 | 35902 ft | 485 kts | 46° |
| 2026-05-07 20:14 | -25.62475 | -47.85491 | 36203 ft | 488 kts | 46° |
| 2026-05-07 20:14 | -25.60226 | -47.82664 | 36487 ft | 491 kts | 46° |
| 2026-05-07 20:14 | -25.57959 | -47.79817 | 36762 ft | 494 kts | 46° |
| 2026-05-07 20:15 | -25.55667 | -47.76940 | 36893 ft | 501 kts | 46° |
| 2026-05-07 20:15 | -25.51012 | -47.71103 | 36907 ft | 515 kts | 46° |
| 2026-05-07 20:16 | -25.46237 | -47.65121 | 36919 ft | 521 kts | 46° |
| 2026-05-07 20:16 | -25.41466 | -47.59078 | 36911 ft | 519 kts | 50° |
| 2026-05-07 20:17 | -25.37871 | -47.52154 | 36913 ft | 519 kts | 64° |
| 2026-05-07 20:17 | -25.34765 | -47.44954 | 36921 ft | 518 kts | 64° |
| 2026-05-07 20:18 | -25.31668 | -47.37800 | 36922 ft | 518 kts | 64° |
| 2026-05-07 20:18 | -25.28551 | -47.30600 | 36929 ft | 518 kts | 64° |
| 2026-05-07 20:19 | -25.25425 | -47.23402 | 36929 ft | 519 kts | 64° |
| 2026-05-07 20:19 | -25.22302 | -47.16214 | 36930 ft | 519 kts | 64° |
| 2026-05-07 20:20 | -25.19192 | -47.09074 | 36821 ft | 521 kts | 64° |
| 2026-05-07 20:20 | -25.17605 | -47.05433 | 36071 ft | 525 kts | 64° |
| 2026-05-07 20:20 | -25.15811 | -47.01958 | 35345 ft | 516 kts | 54° |
| 2026-05-07 20:20 | -25.13613 | -46.98860 | 34634 ft | 509 kts | 46° |
| 2026-05-07 20:21 | -25.11078 | -46.96170 | 33950 ft | 501 kts | 37° |
| 2026-05-07 20:21 | -25.08284 | -46.93937 | 33178 ft | 493 kts | 28° |
| 2026-05-07 20:21 | -25.05345 | -46.92013 | 32428 ft | 488 kts | 27° |
| 2026-05-07 20:21 | -25.02474 | -46.90134 | 31704 ft | 484 kts | 27° |
| 2026-05-07 20:22 | -24.99581 | -46.88229 | 30988 ft | 484 kts | 27° |
| 2026-05-07 20:22 | -24.96674 | -46.86323 | 30288 ft | 485 kts | 27° |
| 2026-05-07 20:22 | -24.93769 | -46.84427 | 29545 ft | 485 kts | 27° |
| 2026-05-07 20:22 | -24.90892 | -46.82546 | 28770 ft | 485 kts | 27° |
| 2026-05-07 20:23 | -24.87996 | -46.80648 | 28006 ft | 484 kts | 27° |
| 2026-05-07 20:23 | -24.85096 | -46.78751 | 27259 ft | 482 kts | 27° |
| 2026-05-07 20:23 | -24.82212 | -46.76869 | 26599 ft | 480 kts | 27° |
| 2026-05-07 20:23 | -24.79347 | -46.74998 | 25980 ft | 476 kts | 27° |
| 2026-05-07 20:24 | -24.76499 | -46.73139 | 25374 ft | 473 kts | 27° |
| 2026-05-07 20:24 | -24.73681 | -46.71302 | 24784 ft | 470 kts | 27° |
| 2026-05-07 20:24 | -24.70912 | -46.69497 | 24220 ft | 467 kts | 27° |
| 2026-05-07 20:24 | -24.68123 | -46.67679 | 23643 ft | 464 kts | 27° |
| 2026-05-07 20:25 | -24.65335 | -46.65864 | 22992 ft | 461 kts | 28° |
| 2026-05-07 20:25 | -24.62514 | -46.64226 | 22316 ft | 455 kts | 20° |
| 2026-05-07 20:25 | -24.59527 | -46.63137 | 21658 ft | 448 kts | 11° |
| 2026-05-07 20:25 | -24.56503 | -46.62720 | 21019 ft | 442 kts | 0° |
| 2026-05-07 20:26 | -24.53438 | -46.62753 | 20395 ft | 437 kts | 356° |
| 2026-05-07 20:26 | -24.50408 | -46.62947 | 19791 ft | 433 kts | 355° |
| 2026-05-07 20:26 | -24.47401 | -46.63066 | 19187 ft | 431 kts | 359° |
| 2026-05-07 20:26 | -24.44411 | -46.62969 | 18600 ft | 428 kts | 2° |
| 2026-05-07 20:27 | -24.41478 | -46.62864 | 18003 ft | 425 kts | 0° |
| 2026-05-07 20:27 | -24.38530 | -46.62877 | 17341 ft | 422 kts | 359° |
| 2026-05-07 20:27 | -24.35595 | -46.62913 | 16697 ft | 420 kts | 360° |
| 2026-05-07 20:27 | -24.32673 | -46.62886 | 16073 ft | 417 kts | 1° |
| 2026-05-07 20:28 | -24.29799 | -46.62840 | 15485 ft | 412 kts | 1° |
| 2026-05-07 20:28 | -24.26966 | -46.62827 | 14900 ft | 402 kts | 0° |
| 2026-05-07 20:28 | -24.24200 | -46.62825 | 14326 ft | 392 kts | 1° |
| 2026-05-07 20:28 | -24.21544 | -46.62809 | 13769 ft | 385 kts | 1° |
| 2026-05-07 20:29 | -24.18877 | -46.62787 | 13139 ft | 379 kts | 1° |
| 2026-05-07 20:29 | -24.17135 | -46.62776 | 12722 ft | 375 kts | 1° |
| 2026-05-07 20:29 | -24.14544 | -46.62764 | 12109 ft | 371 kts | 0° |
| 2026-05-07 20:29 | -24.11198 | -46.62744 | 11324 ft | 365 kts | 0° |
| 2026-05-07 20:30 | -24.09488 | -46.62732 | 10924 ft | 362 kts | 0° |
| 2026-05-07 20:30 | -24.06975 | -46.62718 | 10345 ft | 359 kts | 360° |
| 2026-05-07 20:30 | -24.04488 | -46.62709 | 9781 ft | 356 kts | 359° |
| 2026-05-07 20:30 | -24.02048 | -46.62695 | 9146 ft | 352 kts | 360° |
| 2026-05-07 20:31 | -23.99623 | -46.62674 | 8951 ft | 340 kts | 360° |
| 2026-05-07 20:31 | -23.97308 | -46.62659 | 8821 ft | 327 kts | 359° |
| 2026-05-07 20:31 | -23.95052 | -46.62649 | 8333 ft | 329 kts | 359° |
| 2026-05-07 20:31 | -23.92787 | -46.62639 | 7833 ft | 314 kts | 360° |
| 2026-05-07 20:32 | -23.90663 | -46.62625 | 7303 ft | 294 kts | 360° |
| 2026-05-07 20:32 | -23.88673 | -46.62602 | 6782 ft | 279 kts | 1° |
| 2026-05-07 20:32 | -23.86856 | -46.62209 | 6334 ft | 267 kts | 17° |
| 2026-05-07 20:32 | -23.85234 | -46.61354 | 5955 ft | 257 kts | 30° |
| 2026-05-07 20:33 | -23.83897 | -46.60138 | 5691 ft | 245 kts | 43° |
| 2026-05-07 20:33 | -23.82859 | -46.58730 | 5541 ft | 229 kts | 48° |
| 2026-05-07 20:33 | -23.81903 | -46.57417 | 5422 ft | 213 kts | 47° |
| 2026-05-07 20:33 | -23.80913 | -46.56337 | 5290 ft | 198 kts | 31° |
| 2026-05-07 20:34 | -23.79721 | -46.55702 | 5172 ft | 185 kts | 14° |
| 2026-05-07 20:34 | -23.78502 | -46.55505 | 5049 ft | 175 kts | 358° |
| 2026-05-07 20:34 | -23.77329 | -46.55698 | 4924 ft | 165 kts | 342° |
| 2026-05-07 20:34 | -23.76334 | -46.56224 | 4798 ft | 152 kts | 332° |
| 2026-05-07 20:35 | -23.75463 | -46.56779 | 4659 ft | 142 kts | 330° |
| 2026-05-07 20:35 | -23.74627 | -46.57339 | 4536 ft | 141 kts | 330° |
| 2026-05-07 20:35 | -23.73784 | -46.57923 | 4420 ft | 144 kts | 329° |
| 2026-05-07 20:35 | -23.72945 | -46.58505 | 4315 ft | 141 kts | 329° |
| 2026-05-07 20:36 | -23.72142 | -46.59058 | 4255 ft | 136 kts | 328° |
| 2026-05-07 20:36 | -23.71356 | -46.59618 | 4193 ft | 134 kts | 330° |
| 2026-05-07 20:36 | -23.70569 | -46.60151 | 4130 ft | 132 kts | 328° |
| 2026-05-07 20:36 | -23.69800 | -46.60699 | 4071 ft | 132 kts | 329° |
| 2026-05-07 20:37 | -23.69004 | -46.61239 | 3940 ft | 138 kts | 329° |
| 2026-05-07 20:37 | -23.68184 | -46.61817 | 3771 ft | 139 kts | 328° |
| 2026-05-07 20:37 | -23.67390 | -46.62371 | 3587 ft | 132 kts | 329° |
| 2026-05-07 20:37 | -23.66629 | -46.62897 | 3430 ft | 131 kts | 329° |
| 2026-05-07 20:38 | -23.65848 | -46.63434 | 3251 ft | 134 kts | 329° |
| 2026-05-07 20:38 | -23.65066 | -46.63987 | 3072 ft | 133 kts | 329° |
| 2026-05-07 20:38 | -23.64288 | -46.64534 | 2898 ft | 133 kts | 332° |
| 2026-05-07 20:38 | -23.63517 | -46.65052 | 2675 ft | 134 kts | 331° |
| 2026-05-07 20:39 | -23.62788 | -46.65564 | 2602 ft | 112 kts | 328° |
| 2026-05-07 20:39 | -23.62385 | -46.65842 | 2596 ft | 50 kts | 328° |
| 2026-05-07 20:39 | -23.62208 | -46.65954 | 2593 ft | 16 kts | 359° |
| 2026-05-07 20:39 | -23.62153 | -46.65872 | 2592 ft | 15 kts | 80° |
| 2026-05-07 20:40 | -23.62140 | -46.65767 | 2589 ft | 11 kts | 68° |
| 2026-05-07 20:40 | -23.62116 | -46.65686 | 2594 ft | 10 kts | 121° |
| 2026-05-07 20:40 | -23.62153 | -46.65649 | 2586 ft | 4 kts | 109° |
| 2026-05-07 20:40 | -23.62154 | -46.65617 | 2594 ft | 2 kts | 123° |
| 2026-05-07 20:41 | -23.62157 | -46.65614 | 2594 ft | 0 kts | 137° |